Henry B. Bigelow — WTDF — position and weather

sailwx.info

Track history (hours):
 
Tides and Currents Weather Stations Pressure Air Temp Water Temp Dewpoint Dewpoint Depression Visibility Wind Speed Wind Dir Waves Ship Positions

Oceanographic research ship Henry B. Bigelow (USA)

Ship's website: http://www.moc.noaa.gov/hb/

Last reported at 2017-Jun-26 07:32 UTC. Time now 2017-Jun-26 19:09 UTC.
Position N 41°32' W 071°19'.

Type: Other ship. MMSI: 369991000.

Date/timePositionNaut miles runAvg speedWind from/ knotsBaromVisibWave heightAir tempDewpointWater temp
2017-Jun-26 07:32N 41°32' W 071°19'0 0.0
2017-Jun-26 07:17N 41°32' W 071°19'0 0.0
2017-Jun-25 05:11N 41°32' W 071°19'0 0.0
2017-Jun-25 04:47N 41°32' W 071°19'  
2017-Jun-22 12:00N 41°30' W 071°18'6 6.0 210 / 11016.6 18.4 18.0
2017-Jun-22 11:00N 41°24' W 071°18'5 4.5 230 / 11015.8 17.5 15.7
2017-Jun-22 10:00N 41°24' W 071°24'6 6.0 330 / 61014.9 16.4 15.9
2017-Jun-22 09:00N 41°18' W 071°24'5 4.5 320 / 81014.4 16.2 16.6
2017-Jun-22 08:00N 41°18' W 071°18'6 6.0 270 / 61013.6 16.8 16.1
2017-Jun-22 07:00N 41°24' W 071°18'9 9.0 300 / 51013.5 18.6 16.7
2017-Jun-22 06:00N 41°24' W 071°06'5270.0 300 / 51013.3 5.4 18.516.117.2
2017-Jun-22 05:59N 41°24' W 071°12'5 4.5 310 / 51013.3 17.2 17.2
2017-Jun-22 04:59N 41°24' W 071°06'5 4.4 290 / 111013.2 17.5 16.9
2017-Jun-22 03:58N 41°24' W 071°00'5 4.6 280 / 91013.3 17.1 17.3
2017-Jun-22 02:59N 41°24' W 070°54'7 7.5 260 / 101012.7 17.4 17.2
2017-Jun-22 01:59N 41°30' W 070°48'4 4.6 250 / 121012.7 17.9 17.9
2017-Jun-22 01:00N 41°30' W 070°42'1312.8 250 / 111012.3 19.1 18.6
2017-Jun-22 00:00N 41°42' W 070°36'9 8.7 230 / 181011.8 19.8 18.6
2017-Jun-21 22:58N 41°42' W 070°24'6 6.1 240 / 181011.7 18.8 15.0
2017-Jun-21 21:59N 41°48' W 070°24'0 0.0 230 / 261011.7 20.7 15.9
2017-Jun-21 21:00N 41°48' W 070°24'0 0.0 230 / 231011.7 21.6 15.9
2017-Jun-21 20:00N 41°48' W 070°24'7 5.9 230 / 281011.4 21.6 16.1
2017-Jun-21 18:44N 41°54' W 070°18'710.2 210 / 251011.3 20.3 16.2
2017-Jun-21 18:00N 42°00' W 070°12'417.8 210 / 191010.0 5.4 19.516.914.1
2017-Jun-21 17:45N 42°00' W 070°18'816.4 210 / 201011.0 20.2 14.6
2017-Jun-21 17:16N 42°08' W 070°16'2 7.4
2017-Jun-21 17:00N 42°09' W 070°14'314.4
2017-Jun-21 16:46N 42°06' W 070°12'712.3 210 / 201011.1 18.6 14.0
2017-Jun-21 16:11N 42°13' W 070°09'1 7.3
2017-Jun-21 15:59N 42°14' W 070°08'210.4
2017-Jun-21 15:47N 42°12' W 070°06'517.2 210 / 151011.4 16.8 13.6
2017-Jun-21 15:29N 42°17' W 070°04'1224.3
2017-Jun-21 15:00N 42°18' W 069°48'420.5 210 / 131011.8 5.4 19.016.713.1
2017-Jun-21 14:47N 42°18' W 069°54'7 7.6 220 / 151012.0 16.2 13.1
2017-Jun-21 13:48N 42°24' W 069°48'610.7 230 / 151012.2 15.4 13.9
2017-Jun-21 13:14N 42°30' W 069°49'0 1.2
2017-Jun-21 13:00N 42°30' W 069°49'1 5.4
2017-Jun-21 12:49N 42°30' W 069°48'7 7.5 220 / 151012.4 15.4 14.5
2017-Jun-21 11:49N 42°36' W 069°42'6 9.1 220 / 111012.9 15.4 14.7
2017-Jun-21 11:08N 42°41' W 069°38'1 7.7
2017-Jun-21 11:00N 42°42' W 069°37'1 5.1
2017-Jun-21 10:50N 42°42' W 069°36'410.9 220 / 131012.9 15.6 14.5
2017-Jun-21 10:30N 42°45' W 069°34'811.7
2017-Jun-21 09:51N 42°48' W 069°24'7 7.4 230 / 161012.8 15.6 14.2
2017-Jun-21 08:51N 42°54' W 069°18'7 7.6 210 / 151012.2 15.2 14.2
2017-Jun-21 07:52N 43°00' W 069°12'7 7.6 230 / 131012.3 15.1 14.0
2017-Jun-21 06:53N 43°06' W 069°06'1110.6 250 / 131012.4 15.6 12.7
2017-Jun-21 05:53N 43°12' W 068°54'7 7.5 250 / 151012.3 15.3 12.2
2017-Jun-21 04:54N 43°18' W 068°48'7 7.5 240 / 201012.2 14.8 11.5
2017-Jun-21 03:55N 43°24' W 068°42'7 7.4 230 / 161011.6 14.5 11.0
2017-Jun-21 02:55N 43°30' W 068°36'1110.7 220 / 161011.3 12.6 9.2
2017-Jun-21 01:56N 43°36' W 068°24'7 7.5 230 / 161010.8 12.6 9.6
2017-Jun-21 00:57N 43°42' W 068°18'7 3.7 230 / 211009.9 13.0 9.3
2017-Jun-20 22:58N 43°48' W 068°12'0 0.0 200 / 201008.4 11.3 8.9
2017-Jun-20 21:59N 43°48' W 068°12'6 4.8 210 / 251008.6 12.9 8.9
2017-Jun-20 20:44N 43°54' W 068°12'0 0.0 210 / 211009.0 13.4 9.0
2017-Jun-20 19:45N 43°54' W 068°12'0 0.0 190 / 181009.8 14.4 8.9
2017-Jun-20 18:45N 43°54' W 068°12'4 5.8 200 / 231009.8 12.1 8.9
2017-Jun-20 18:00N 43°54' W 068°06'731.7 200 / 191009.4 13.013.0 8.8
2017-Jun-20 17:46N 43°48' W 068°12'6 6.1 200 / 221010.4 14.3 8.8
2017-Jun-20 16:47N 43°54' W 068°12'0 0.0 200 / 231010.6 14.7 8.7
2017-Jun-20 15:48N 43°54' W 068°12'7 7.4 190 / 181010.7 14.2 8.7
2017-Jun-20 14:48N 43°48' W 068°06'7 7.5 170 / 121011.2 11.7 9.1
2017-Jun-20 13:49N 43°42' W 068°00'1515.1 180 / 151011.3 13.1 11.2
2017-Jun-20 12:50N 43°30' W 067°48'1110.6 160 / 131011.5 13.4 11.3
2017-Jun-20 11:50N 43°24' W 067°36'7 7.5 160 / 141012.3 12.9 11.9
2017-Jun-20 10:51N 43°18' W 067°30'0 0.0 200 / 221012.6 14.9 11.5
2017-Jun-20 09:52N 43°18' W 067°30'0 0.0 200 / 241012.6 13.4 11.6
2017-Jun-20 08:52N 43°18' W 067°30'0 0.0 210 / 201013.0 13.4 10.5
2017-Jun-20 07:53N 43°18' W 067°30'0 0.0 200 / 281012.2 15.3 11.5
2017-Jun-20 06:54N 43°18' W 067°30'4 4.9 190 / 271011.9 13.6 10.0
2017-Jun-20 06:00N 43°18' W 067°24'452.4 200 / 241012.5 0.0 15.014.211.5
2017-Jun-20 05:55N 43°18' W 067°30'0 0.0 200 / 271011.9 15.7 11.4
2017-Jun-20 04:55N 43°18' W 067°30'0 0.0 200 / 251012.5 14.0 11.9
2017-Jun-20 03:56N 43°18' W 067°30'0 0.0 200 / 281013.7 14.3 11.3
2017-Jun-20 02:57N 43°18' W 067°30'4 4.4 200 / 241013.9 15.3 11.8
2017-Jun-20 01:58N 43°18' W 067°24'0 0.0 200 / 241013.8 13.4 11.4
2017-Jun-20 00:58N 43°18' W 067°24'4 4.5 200 / 221013.6 13.4 11.0
2017-Jun-20 00:00N 43°18' W 067°18'7 5.9 200 / 241013.0 14.814.811.1
2017-Jun-19 22:44N 43°24' W 067°24'7 7.5 200 / 231013.2 13.6 11.8
2017-Jun-19 21:45N 43°30' W 067°30'7 9.9 190 / 241013.1 13.9 11.9
2017-Jun-19 21:00N 43°36' W 067°24'418.6 200 / 241012.5 0.0 14.514.511.8
2017-Jun-19 20:46N 43°36' W 067°30'7 7.4 200 / 241012.5 14.0 11.7
2017-Jun-19 19:46N 43°42' W 067°36'6 6.1 200 / 201012.4 13.8 11.4
2017-Jun-19 18:47N 43°48' W 067°36'1316.3 200 / 201012.6 13.1 10.8
2017-Jun-19 18:00N 44°00' W 067°30'421.6 200 / 131011.6 13.813.8 9.5
2017-Jun-19 17:48N 44°00' W 067°36'7 7.5 190 / 151013.2 12.5 9.4
2017-Jun-19 16:49N 44°06' W 067°42'7 7.4 200 / 201013.1 12.2 8.1
2017-Jun-19 15:49N 44°12' W 067°36'7 9.0 200 / 151013.3 11.6 8.0
2017-Jun-19 15:00N 44°06' W 067°30'951.7 210 / 191011.3 13.012.1 8.0
2017-Jun-19 14:50N 44°06' W 067°42'0 0.0 210 / 191013.1 12.0 8.0
2017-Jun-19 13:51N 44°06' W 067°42'4 4.3 200 / 201012.9 12.2 8.0
2017-Jun-19 12:51N 44°06' W 067°36'0 0.0 210 / 221012.6 11.9 7.8
2017-Jun-19 11:52N 44°06' W 067°36'7 7.5 210 / 211012.1 12.1 7.8
2017-Jun-19 10:53N 44°00' W 067°42'0 0.0 210 / 241011.4 13.1 8.8
2017-Jun-19 09:54N 44°00' W 067°42'7 7.4 200 / 261010.8 12.6 8.6
2017-Jun-19 08:54N 44°06' W 067°36'0 0.0 210 / 221011.2 12.1 7.9
2017-Jun-19 07:55N 44°06' W 067°36'7 7.5 210 / 211011.0 12.4 7.8
2017-Jun-19 06:56N 44°00' W 067°42'1111.3 210 / 191011.0 12.9 8.6
2017-Jun-19 06:00N 44°06' W 067°30'464.6 200 / 301010.8 0.0 13.513.5 8.4
2017-Jun-19 05:56N 44°06' W 067°36'6 6.1 200 / 241011.2 12.5 8.0
2017-Jun-19 04:57N 44°12' W 067°36'0 0.0 210 / 221011.3 11.7 7.7
2017-Jun-19 03:58N 44°12' W 067°36'4 4.4 190 / 251010.7 12.1 7.7
2017-Jun-19 02:59N 44°12' W 067°30'0 0.0 160 / 121011.6 11.4 7.9
2017-Jun-19 01:59N 44°12' W 067°30'0 0.0 200 / 241011.3 12.0 8.1
2017-Jun-19 00:44N 44°12' W 067°30'1317.4 200 / 211011.3 14.0 8.5
2017-Jun-19 00:00N 44°00' W 067°24'6 4.8 210 / 241010.6 13.613.610.4
2017-Jun-18 22:45N 43°54' W 067°24'4 4.4 160 / 111011.0 13.2 11.8
2017-Jun-18 21:46N 43°54' W 067°18'0 0.0 200 / 211011.7 13.6 11.8
2017-Jun-18 20:47N 43°54' W 067°18'0 0.0 200 / 201012.3 13.6 11.7
2017-Jun-18 19:47N 43°54' W 067°18'0 0.0 190 / 191013.2 13.3 11.7
2017-Jun-18 18:48N 43°54' W 067°18'4 5.4 210 / 181014.2 13.5 11.2
2017-Jun-18 18:00N 43°54' W 067°12'423.6 210 / 191013.2 0.0 14.514.510.3
2017-Jun-18 17:49N 43°54' W 067°18'0 0.0 200 / 181014.7 13.3 10.3
2017-Jun-18 16:49N 43°54' W 067°18'0 0.0 180 / 141015.0 12.5 10.5
2017-Jun-18 15:50N 43°54' W 067°18'0 0.0 190 / 161015.3 12.2 10.0
2017-Jun-18 14:51N 43°54' W 067°18'7 7.4 190 / 141015.4 12.1 10.1
2017-Jun-18 13:51N 44°00' W 067°24'7 7.5 160 / 111014.6 11.1 8.9
2017-Jun-18 12:52N 44°06' W 067°30'4 4.4 180 / 131014.7 10.6 8.5
2017-Jun-18 11:53N 44°06' W 067°36'0 0.0 140 / 91014.5 10.4 8.7
2017-Jun-18 10:54N 44°06' W 067°36'0 0.0 170 / 101014.2 10.8 9.4
2017-Jun-18 09:54N 44°06' W 067°36'0 0.0 170 / 111013.9 10.6 9.5
2017-Jun-18 08:55N 44°06' W 067°36'7 7.5 180 / 101014.1 9.5 8.9
2017-Jun-18 07:56N 44°00' W 067°42'7 7.4 190 / 61014.4 10.1 9.9
2017-Jun-18 06:56N 44°06' W 067°36'0 0.0 240 / 51014.6 9.5 8.8
2017-Jun-18 05:57N 44°06' W 067°36'7 7.5 220 / 51014.1 9.7 8.8
2017-Jun-18 04:58N 44°00' W 067°42'7 7.4 260 / 71014.8 9.8 9.9
2017-Jun-18 03:58N 43°54' W 067°36'6 6.1 290 / 51014.9 10.1 10.9
2017-Jun-18 02:59N 43°48' W 067°36'1313.0 240 / 101014.8 11.1 11.2
2017-Jun-18 02:00N 43°36' W 067°42'1310.2 220 / 101015.2 11.2 11.2
2017-Jun-18 00:45N 43°24' W 067°48'6 3.0 230 / 101014.3 11.6 11.8
2017-Jun-17 22:46N 43°18' W 067°48'0 0.0 180 / 101014.3 11.2 10.5
2017-Jun-17 21:47N 43°18' W 067°48'4 5.6 190 / 111014.2 11.5 11.0
2017-Jun-17 21:00N 43°18' W 067°42'420.2 170 / 131013.6 0.3 13.512.7
2017-Jun-17 20:47N 43°18' W 067°48'0 0.0 160 / 121014.3 11.7 10.1
2017-Jun-17 19:48N 43°18' W 067°48'0 0.0 150 / 151015.0 11.9 10.9
2017-Jun-17 18:48N 43°18' W 067°48'0 0.0 140 / 191015.5 12.1 10.8
2017-Jun-17 17:49N 43°18' W 067°48'0 0.0 160 / 171016.6 13.3 10.8
2017-Jun-17 16:50N 43°18' W 067°48'0 0.0 160 / 91016.9 12.6 10.8
2017-Jun-17 15:50N 43°18' W 067°48'0 0.0 220 / 81017.6 12.5 10.7
2017-Jun-17 14:51N 43°18' W 067°48'135 7.9 240 / 31017.9 12.1 10.6
2017-Jun-16 21:45N 41°36' W 065°48'0 0.0 150 / 181023.7 18.5 17.7
2017-Jun-16 20:45N 41°36' W 065°48'0 0.0 140 / 181023.5 18.0 17.8
2017-Jun-16 19:46N 41°36' W 065°48'0 0.0 150 / 211023.6 18.4 17.7
2017-Jun-16 18:47N 41°36' W 065°48'4 5.7 150 / 191023.4 18.1 16.9
2017-Jun-16 18:00N 41°36' W 065°42'420.7 160 / 131022.610.8 18.811.3
2017-Jun-16 17:47N 41°36' W 065°48'0 0.0 150 / 171023.6 17.7 13.6
2017-Jun-16 16:48N 41°36' W 065°48'0 0.0 140 / 191023.8 17.1 11.2
2017-Jun-16 15:49N 41°36' W 065°48'4 5.5 150 / 161024.0 16.2 11.1
2017-Jun-16 15:00N 41°36' W 065°42'426.9 140 / 191023.3 5.4 17.510.6
2017-Jun-16 14:50N 41°36' W 065°48'0 0.0 140 / 151023.9 16.6 11.3
2017-Jun-16 13:50N 41°36' W 065°48'0 0.0 140 / 141023.8 18.6 11.2
2017-Jun-16 12:51N 41°36' W 065°48'0 0.0 040 / 21024.1 15.4 10.9
2017-Jun-16 11:52N 41°36' W 065°48'0 0.0 330 / 31024.0 14.7 11.0
2017-Jun-16 10:52N 41°36' W 065°48'0 0.0 110 / 81023.6 16.2 17.3
2017-Jun-16 09:53N 41°36' W 065°48'0 0.0 040 / 41023.5 16.5 15.8
2017-Jun-16 08:54N 41°36' W 065°48'6 6.0 040 / 41022.9 15.1 15.0
2017-Jun-16 07:54N 41°30' W 065°48'   040 / 51022.5 14.8 14.2
Track history (hours):
 
Tides and Currents Weather Stations Pressure Air Temp Water Temp Dewpoint Dewpoint Depression Visibility Wind Speed Wind Dir Waves Ship Positions

Oceanographic research ship Henry B. Bigelow (USA)

Ship's website: http://www.moc.noaa.gov/hb/

Last reported at 2017-Jun-26 07:32 UTC. Time now 2017-Jun-26 19:09 UTC.
Position N 41°32' W 071°19'.

Type: Other ship. MMSI: 369991000.

Date/timePositionNaut miles runAvg speedWind from/ knotsBaromVisibWave heightAir tempDewpointWater temp
2017-Jun-26 07:32N 41°32' W 071°19'0 0.0
2017-Jun-26 07:17N 41°32' W 071°19'0 0.0
2017-Jun-25 05:11N 41°32' W 071°19'0 0.0
2017-Jun-25 04:47N 41°32' W 071°19'  
2017-Jun-22 12:00N 41°30' W 071°18'6 6.0 210 / 11016.6 18.4 18.0
2017-Jun-22 11:00N 41°24' W 071°18'5 4.5 230 / 11015.8 17.5 15.7
2017-Jun-22 10:00N 41°24' W 071°24'6 6.0 330 / 61014.9 16.4 15.9
2017-Jun-22 09:00N 41°18' W 071°24'5 4.5 320 / 81014.4 16.2 16.6
2017-Jun-22 08:00N 41°18' W 071°18'6 6.0 270 / 61013.6 16.8 16.1
2017-Jun-22 07:00N 41°24' W 071°18'9 9.0 300 / 51013.5 18.6 16.7
2017-Jun-22 06:00N 41°24' W 071°06'5270.0 300 / 51013.3 5.4 18.516.117.2
2017-Jun-22 05:59N 41°24' W 071°12'5 4.5 310 / 51013.3 17.2 17.2
2017-Jun-22 04:59N 41°24' W 071°06'5 4.4 290 / 111013.2 17.5 16.9
2017-Jun-22 03:58N 41°24' W 071°00'5 4.6 280 / 91013.3 17.1 17.3
2017-Jun-22 02:59N 41°24' W 070°54'7 7.5 260 / 101012.7 17.4 17.2
2017-Jun-22 01:59N 41°30' W 070°48'4 4.6 250 / 121012.7 17.9 17.9
2017-Jun-22 01:00N 41°30' W 070°42'1312.8 250 / 111012.3 19.1 18.6
2017-Jun-22 00:00N 41°42' W 070°36'9 8.7 230 / 181011.8 19.8 18.6
2017-Jun-21 22:58N 41°42' W 070°24'6 6.1 240 / 181011.7 18.8 15.0
2017-Jun-21 21:59N 41°48' W 070°24'0 0.0 230 / 261011.7 20.7 15.9
2017-Jun-21 21:00N 41°48' W 070°24'0 0.0 230 / 231011.7 21.6 15.9
2017-Jun-21 20:00N 41°48' W 070°24'7 5.9 230 / 281011.4 21.6 16.1
2017-Jun-21 18:44N 41°54' W 070°18'710.2 210 / 251011.3 20.3 16.2
2017-Jun-21 18:00N 42°00' W 070°12'417.8 210 / 191010.0 5.4 19.516.914.1
2017-Jun-21 17:45N 42°00' W 070°18'816.4 210 / 201011.0 20.2 14.6
2017-Jun-21 17:16N 42°08' W 070°16'2 7.4
2017-Jun-21 17:00N 42°09' W 070°14'314.4
2017-Jun-21 16:46N 42°06' W 070°12'712.3 210 / 201011.1 18.6 14.0
2017-Jun-21 16:11N 42°13' W 070°09'1 7.3
2017-Jun-21 15:59N 42°14' W 070°08'210.4
2017-Jun-21 15:47N 42°12' W 070°06'517.2 210 / 151011.4 16.8 13.6
2017-Jun-21 15:29N 42°17' W 070°04'1224.3
2017-Jun-21 15:00N 42°18' W 069°48'420.5 210 / 131011.8 5.4 19.016.713.1
2017-Jun-21 14:47N 42°18' W 069°54'7 7.6 220 / 151012.0 16.2 13.1
2017-Jun-21 13:48N 42°24' W 069°48'610.7 230 / 151012.2 15.4 13.9
2017-Jun-21 13:14N 42°30' W 069°49'0 1.2
2017-Jun-21 13:00N 42°30' W 069°49'1 5.4
2017-Jun-21 12:49N 42°30' W 069°48'7 7.5 220 / 151012.4 15.4 14.5
2017-Jun-21 11:49N 42°36' W 069°42'6 9.1 220 / 111012.9 15.4 14.7
2017-Jun-21 11:08N 42°41' W 069°38'1 7.7
2017-Jun-21 11:00N 42°42' W 069°37'1 5.1
2017-Jun-21 10:50N 42°42' W 069°36'410.9 220 / 131012.9 15.6 14.5
2017-Jun-21 10:30N 42°45' W 069°34'811.7
2017-Jun-21 09:51N 42°48' W 069°24'7 7.4 230 / 161012.8 15.6 14.2
2017-Jun-21 08:51N 42°54' W 069°18'7 7.6 210 / 151012.2 15.2 14.2
2017-Jun-21 07:52N 43°00' W 069°12'7 7.6 230 / 131012.3 15.1 14.0
2017-Jun-21 06:53N 43°06' W 069°06'1110.6 250 / 131012.4 15.6 12.7
2017-Jun-21 05:53N 43°12' W 068°54'7 7.5 250 / 151012.3 15.3 12.2
2017-Jun-21 04:54N 43°18' W 068°48'7 7.5 240 / 201012.2 14.8 11.5
2017-Jun-21 03:55N 43°24' W 068°42'7 7.4 230 / 161011.6 14.5 11.0
2017-Jun-21 02:55N 43°30' W 068°36'1110.7 220 / 161011.3 12.6 9.2
2017-Jun-21 01:56N 43°36' W 068°24'7 7.5 230 / 161010.8 12.6 9.6
2017-Jun-21 00:57N 43°42' W 068°18'7 3.7 230 / 211009.9 13.0 9.3
2017-Jun-20 22:58N 43°48' W 068°12'0 0.0 200 / 201008.4 11.3 8.9
2017-Jun-20 21:59N 43°48' W 068°12'6 4.8 210 / 251008.6 12.9 8.9
2017-Jun-20 20:44N 43°54' W 068°12'0 0.0 210 / 211009.0 13.4 9.0
2017-Jun-20 19:45N 43°54' W 068°12'0 0.0 190 / 181009.8 14.4 8.9
2017-Jun-20 18:45N 43°54' W 068°12'4 5.8 200 / 231009.8 12.1 8.9
2017-Jun-20 18:00N 43°54' W 068°06'731.7 200 / 191009.4 13.013.0 8.8
2017-Jun-20 17:46N 43°48' W 068°12'6 6.1 200 / 221010.4 14.3 8.8
2017-Jun-20 16:47N 43°54' W 068°12'0 0.0 200 / 231010.6 14.7 8.7
2017-Jun-20 15:48N 43°54' W 068°12'7 7.4 190 / 181010.7 14.2 8.7
2017-Jun-20 14:48N 43°48' W 068°06'7 7.5 170 / 121011.2 11.7 9.1
2017-Jun-20 13:49N 43°42' W 068°00'1515.1 180 / 151011.3 13.1 11.2
2017-Jun-20 12:50N 43°30' W 067°48'1110.6 160 / 131011.5 13.4 11.3
2017-Jun-20 11:50N 43°24' W 067°36'7 7.5 160 / 141012.3 12.9 11.9
2017-Jun-20 10:51N 43°18' W 067°30'0 0.0 200 / 221012.6 14.9 11.5
2017-Jun-20 09:52N 43°18' W 067°30'0 0.0 200 / 241012.6 13.4 11.6
2017-Jun-20 08:52N 43°18' W 067°30'0 0.0 210 / 201013.0 13.4 10.5
2017-Jun-20 07:53N 43°18' W 067°30'0 0.0 200 / 281012.2 15.3 11.5
2017-Jun-20 06:54N 43°18' W 067°30'4 4.9 190 / 271011.9 13.6 10.0
2017-Jun-20 06:00N 43°18' W 067°24'452.4 200 / 241012.5 0.0 15.014.211.5
2017-Jun-20 05:55N 43°18' W 067°30'0 0.0 200 / 271011.9 15.7 11.4
2017-Jun-20 04:55N 43°18' W 067°30'0 0.0 200 / 251012.5 14.0 11.9
2017-Jun-20 03:56N 43°18' W 067°30'0 0.0 200 / 281013.7 14.3 11.3
2017-Jun-20 02:57N 43°18' W 067°30'4 4.4 200 / 241013.9 15.3 11.8
2017-Jun-20 01:58N 43°18' W 067°24'0 0.0 200 / 241013.8 13.4 11.4
2017-Jun-20 00:58N 43°18' W 067°24'4 4.5 200 / 221013.6 13.4 11.0
2017-Jun-20 00:00N 43°18' W 067°18'7 5.9 200 / 241013.0 14.814.811.1
2017-Jun-19 22:44N 43°24' W 067°24'7 7.5 200 / 231013.2 13.6 11.8
2017-Jun-19 21:45N 43°30' W 067°30'7 9.9 190 / 241013.1 13.9 11.9
2017-Jun-19 21:00N 43°36' W 067°24'418.6 200 / 241012.5 0.0 14.514.511.8
2017-Jun-19 20:46N 43°36' W 067°30'7 7.4 200 / 241012.5 14.0 11.7
2017-Jun-19 19:46N 43°42' W 067°36'6 6.1 200 / 201012.4 13.8 11.4
2017-Jun-19 18:47N 43°48' W 067°36'1316.3 200 / 201012.6 13.1 10.8
2017-Jun-19 18:00N 44°00' W 067°30'421.6 200 / 131011.6 13.813.8 9.5
2017-Jun-19 17:48N 44°00' W 067°36'7 7.5 190 / 151013.2 12.5 9.4
2017-Jun-19 16:49N 44°06' W 067°42'7 7.4 200 / 201013.1 12.2 8.1
2017-Jun-19 15:49N 44°12' W 067°36'7 9.0 200 / 151013.3 11.6 8.0
2017-Jun-19 15:00N 44°06' W 067°30'951.7 210 / 191011.3 13.012.1 8.0
2017-Jun-19 14:50N 44°06' W 067°42'0 0.0 210 / 191013.1 12.0 8.0
2017-Jun-19 13:51N 44°06' W 067°42'4 4.3 200 / 201012.9 12.2 8.0
2017-Jun-19 12:51N 44°06' W 067°36'0 0.0 210 / 221012.6 11.9 7.8
2017-Jun-19 11:52N 44°06' W 067°36'7 7.5 210 / 211012.1 12.1 7.8
2017-Jun-19 10:53N 44°00' W 067°42'0 0.0 210 / 241011.4 13.1 8.8
2017-Jun-19 09:54N 44°00' W 067°42'7 7.4 200 / 261010.8 12.6 8.6
2017-Jun-19 08:54N 44°06' W 067°36'0 0.0 210 / 221011.2 12.1 7.9
2017-Jun-19 07:55N 44°06' W 067°36'7 7.5 210 / 211011.0 12.4 7.8
2017-Jun-19 06:56N 44°00' W 067°42'1111.3 210 / 191011.0 12.9 8.6
2017-Jun-19 06:00N 44°06' W 067°30'464.6 200 / 301010.8 0.0 13.513.5 8.4
2017-Jun-19 05:56N 44°06' W 067°36'6 6.1 200 / 241011.2 12.5 8.0
2017-Jun-19 04:57N 44°12' W 067°36'0 0.0 210 / 221011.3 11.7 7.7
2017-Jun-19 03:58N 44°12' W 067°36'4 4.4 190 / 251010.7 12.1 7.7
2017-Jun-19 02:59N 44°12' W 067°30'0 0.0 160 / 121011.6 11.4 7.9
2017-Jun-19 01:59N 44°12' W 067°30'0 0.0 200 / 241011.3 12.0 8.1
2017-Jun-19 00:44N 44°12' W 067°30'1317.4 200 / 211011.3 14.0 8.5
2017-Jun-19 00:00N 44°00' W 067°24'6 4.8 210 / 241010.6 13.613.610.4
2017-Jun-18 22:45N 43°54' W 067°24'4 4.4 160 / 111011.0 13.2 11.8
2017-Jun-18 21:46N 43°54' W 067°18'0 0.0 200 / 211011.7 13.6 11.8
2017-Jun-18 20:47N 43°54' W 067°18'0 0.0 200 / 201012.3 13.6 11.7
2017-Jun-18 19:47N 43°54' W 067°18'0 0.0 190 / 191013.2 13.3 11.7
2017-Jun-18 18:48N 43°54' W 067°18'4 5.4 210 / 181014.2 13.5 11.2
2017-Jun-18 18:00N 43°54' W 067°12'423.6 210 / 191013.2 0.0 14.514.510.3
2017-Jun-18 17:49N 43°54' W 067°18'0 0.0 200 / 181014.7 13.3 10.3
2017-Jun-18 16:49N 43°54' W 067°18'0 0.0 180 / 141015.0 12.5 10.5
2017-Jun-18 15:50N 43°54' W 067°18'0 0.0 190 / 161015.3 12.2 10.0
2017-Jun-18 14:51N 43°54' W 067°18'7 7.4 190 / 141015.4 12.1 10.1
2017-Jun-18 13:51N 44°00' W 067°24'7 7.5 160 / 111014.6 11.1 8.9
2017-Jun-18 12:52N 44°06' W 067°30'4 4.4 180 / 131014.7 10.6 8.5
2017-Jun-18 11:53N 44°06' W 067°36'0 0.0 140 / 91014.5 10.4 8.7
2017-Jun-18 10:54N 44°06' W 067°36'0 0.0 170 / 101014.2 10.8 9.4
2017-Jun-18 09:54N 44°06' W 067°36'0 0.0 170 / 111013.9 10.6 9.5
2017-Jun-18 08:55N 44°06' W 067°36'7 7.5 180 / 101014.1 9.5 8.9
2017-Jun-18 07:56N 44°00' W 067°42'7 7.4 190 / 61014.4 10.1 9.9
2017-Jun-18 06:56N 44°06' W 067°36'0 0.0 240 / 51014.6 9.5 8.8
2017-Jun-18 05:57N 44°06' W 067°36'7 7.5 220 / 51014.1 9.7 8.8
2017-Jun-18 04:58N 44°00' W 067°42'7 7.4 260 / 71014.8 9.8 9.9
2017-Jun-18 03:58N 43°54' W 067°36'6 6.1 290 / 51014.9 10.1 10.9
2017-Jun-18 02:59N 43°48' W 067°36'1313.0 240 / 101014.8 11.1 11.2
2017-Jun-18 02:00N 43°36' W 067°42'1310.2 220 / 101015.2 11.2 11.2
2017-Jun-18 00:45N 43°24' W 067°48'6 3.0 230 / 101014.3 11.6 11.8
2017-Jun-17 22:46N 43°18' W 067°48'0 0.0 180 / 101014.3 11.2 10.5
2017-Jun-17 21:47N 43°18' W 067°48'4 5.6 190 / 111014.2 11.5 11.0
2017-Jun-17 21:00N 43°18' W 067°42'420.2 170 / 131013.6 0.3 13.512.7
2017-Jun-17 20:47N 43°18' W 067°48'0 0.0 160 / 121014.3 11.7 10.1
2017-Jun-17 19:48N 43°18' W 067°48'0 0.0 150 / 151015.0 11.9 10.9
2017-Jun-17 18:48N 43°18' W 067°48'0 0.0 140 / 191015.5 12.1 10.8
2017-Jun-17 17:49N 43°18' W 067°48'0 0.0 160 / 171016.6 13.3 10.8
2017-Jun-17 16:50N 43°18' W 067°48'0 0.0 160 / 91016.9 12.6 10.8
2017-Jun-17 15:50N 43°18' W 067°48'0 0.0 220 / 81017.6 12.5 10.7
2017-Jun-17 14:51N 43°18' W 067°48'135 7.9 240 / 31017.9 12.1 10.6
2017-Jun-16 21:45N 41°36' W 065°48'0 0.0 150 / 181023.7 18.5 17.7
2017-Jun-16 20:45N 41°36' W 065°48'0 0.0 140 / 181023.5 18.0 17.8
2017-Jun-16 19:46N 41°36' W 065°48'0 0.0 150 / 211023.6 18.4 17.7
2017-Jun-16 18:47N 41°36' W 065°48'4 5.7 150 / 191023.4 18.1 16.9
2017-Jun-16 18:00N 41°36' W 065°42'420.7 160 / 131022.610.8 18.811.3
2017-Jun-16 17:47N 41°36' W 065°48'0 0.0 150 / 171023.6 17.7 13.6
2017-Jun-16 16:48N 41°36' W 065°48'0 0.0 140 / 191023.8 17.1 11.2
2017-Jun-16 15:49N 41°36' W 065°48'4 5.5 150 / 161024.0 16.2 11.1
2017-Jun-16 15:00N 41°36' W 065°42'426.9 140 / 191023.3 5.4 17.510.6
2017-Jun-16 14:50N 41°36' W 065°48'0 0.0 140 / 151023.9 16.6 11.3
2017-Jun-16 13:50N 41°36' W 065°48'0 0.0 140 / 141023.8 18.6 11.2
2017-Jun-16 12:51N 41°36' W 065°48'0 0.0 040 / 21024.1 15.4 10.9
2017-Jun-16 11:52N 41°36' W 065°48'0 0.0 330 / 31024.0 14.7 11.0
2017-Jun-16 10:52N 41°36' W 065°48'0 0.0 110 / 81023.6 16.2 17.3
2017-Jun-16 09:53N 41°36' W 065°48'0 0.0 040 / 41023.5 16.5 15.8
2017-Jun-16 08:54N 41°36' W 065°48'6 6.0 040 / 41022.9 15.1 15.0
2017-Jun-16 07:54N 41°30' W 065°48'   040 / 51022.5 14.8 14.2

Dump ship's entire track history